Date,TemperatureHighF,TemperatureAvgF,TemperatureLowF,DewpointHighF,DewpointAvgF,DewpointLowF,HumidityHigh,HumidityAvg,HumidityLow,PressureMaxIn,PressureMinIn,WindSpeedMaxMPH,WindSpeedAvgMPH,GustSpeedMaxMPH,PrecipitationSumIn
2013-2-1,32.2,27.6,21.6,17.2,11.0,6.4,62,50,37,30.11,29.67,21,7,0,0.00
2013-2-2,30.4,23.8,15.3,27.4,10.6,6.0,98,58,36,30.18,29.87,16,5,0,0.00
2013-2-3,39.0,28.6,23.9,32.4,24.9,20.5,98,87,55,29.88,29.64,7,2,0,0.01
2013-2-4,31.1,25.9,19.8,26.8,14.2,10.4,98,62,43,29.86,29.69,16,5,0,0.00
2013-2-5,35.1,30.5,25.9,34.6,30.0,25.4,98,98,98,29.81,29.73,4,1,0,0.00
2013-2-6,41.0,32.1,24.3,32.2,24.7,14.5,98,76,51,30.20,29.76,12,3,0,0.01
2013-2-7,36.3,28.7,21.0,31.2,18.7,12.1,95,67,50,30.36,30.14,5,2,0,0.00
2013-2-8,37.6,33.6,30.6,37.1,33.1,30.1,98,98,97,30.13,29.49,10,5,0,0.33
2013-2-9,35.8,29.0,20.7,31.3,20.4,7.9,98,73,47,30.21,29.61,14,5,0,0.05
2013-2-10,41.0,26.9,14.4,24.9,14.6,7.3,98,62,27,30.34,30.16,7,2,0,0.09
2013-2-11,48.0,38.6,29.8,47.5,37.7,25.2,98,96,80,30.16,29.48,6,1,0,0.32
2013-2-12,47.5,39.8,29.8,39.8,30.0,25.7,98,70,49,29.83,29.59,18,5,0,0.00
2013-2-13,46.6,34.8,23.0,36.5,28.9,22.5,98,81,53,29.82,29.52,5,1,0,0.00
2013-2-14,48.2,37.0,27.9,39.1,32.4,27.4,98,86,50,29.86,29.55,8,2,0,0.16
2013-2-15,58.8,43.0,28.6,41.0,34.7,28.1,98,76,46,29.87,29.75,9,3,0,0.00
2013-2-16,40.5,35.4,29.7,38.0,28.3,14.7,98,77,53,29.82,29.60,10,4,0,0.05
2013-2-17,33.1,27.1,18.7,14.5,7.3,0.5,53,43,32,29.90,29.56,21,10,0,0.00
2013-2-18,38.3,26.3,16.7,16.8,8.1,1.0,58,46,33,30.14,29.91,16,6,0,0.00
2013-2-19,49.6,36.8,21.7,44.5,32.8,15.5,98,87,53,30.05,29.53,11,4,0,0.21
2013-2-20,36.1,30.2,24.4,31.4,15.5,11.1,83,54,44,29.87,29.60,21,8,0,0.00
2013-2-21,37.9,28.6,22.8,18.1,14.8,11.3,70,56,44,30.14,29.87,20,8,0,0.00
2013-2-22,40.3,31.2,21.7,35.2,25.2,14.6,98,79,58,30.26,30.10,6,2,0,0.00
2013-2-23,46.8,40.0,34.3,46.3,39.5,33.8,98,98,98,30.11,29.64,7,2,0,0.21
2013-2-24,50.5,38.9,31.8,44.8,33.6,23.0,98,82,55,29.85,29.60,12,5,0,0.01
2013-2-25,46.0,37.3,28.6,33.1,28.6,23.3,98,72,55,30.02,29.86,10,4,0,0.00